TimeAEST,TemperatureF,Dew PointF,Humidity,Sea Level PressureIn,VisibilityMPH,Wind Direction,Wind SpeedMPH,Gust SpeedMPH,PrecipitationIn,Events,Conditions,WindDirDegrees,DateUTC
12:00 AM,74,67,73,29.97,,Calm,Calm,,,,,,2013-10-02 14:00:00
12:00 AM,73.4,66.2,78,29.95,6.2,Calm,Calm,-,N/A,,Mostly Cloudy,0,2013-10-02 14:00:00
12:30 AM,75.2,66.2,73,29.95,6.2,SSE,3.5,-,N/A,,Mostly Cloudy,160,2013-10-02 14:30:00
1:00 AM,73,67,77,29.95,,SSE,6.9,,,,,150,2013-10-02 15:00:00
1:00 AM,73.4,68.0,83,29.92,6.2,SSE,6.9,-,N/A,,Mostly Cloudy,150,2013-10-02 15:00:00
1:30 AM,73.4,68.0,83,29.92,6.2,SSE,2.3,-,N/A,,Mostly Cloudy,160,2013-10-02 15:30:00
2:00 AM,73.4,68.0,83,29.92,6.2,WNW,3.5,-,N/A,,Scattered Clouds,290,2013-10-02 16:00:00
2:30 AM,73.4,68.0,83,29.89,6.2,West,5.8,-,N/A,,Scattered Clouds,270,2013-10-02 16:30:00
3:00 AM,72,67,81,29.91,,SSE,5.8,,,,,150,2013-10-02 17:00:00
3:00 AM,73.4,68.0,83,29.89,6.2,SSE,5.8,-,N/A,,Scattered Clouds,150,2013-10-02 17:00:00
3:30 AM,71.6,68.0,88,29.89,6.2,SSE,1.2,-,N/A,,Scattered Clouds,160,2013-10-02 17:30:00
4:00 AM,72,68,82,29.91,,Calm,Calm,,,,,,2013-10-02 18:00:00
4:00 AM,71.6,68.0,88,29.89,6.2,Calm,Calm,-,N/A,,Scattered Clouds,0,2013-10-02 18:00:00
4:30 AM,69.8,68.0,94,29.89,6.2,Calm,Calm,-,N/A,,Partly Cloudy,0,2013-10-02 18:30:00
5:00 AM,71.6,66.2,83,29.89,6.2,SSE,4.6,-,N/A,,Partly Cloudy,150,2013-10-02 19:00:00
5:30 AM,71.6,66.2,83,29.92,6.2,SSE,9.2,-,N/A,,Scattered Clouds,150,2013-10-02 19:30:00
6:00 AM,70,66,85,29.93,19,South,4.6,,,,Partly Cloudy,180,2013-10-02 20:00:00
6:00 AM,69.8,66.2,88,29.92,6.2,South,4.6,-,N/A,,Scattered Clouds,180,2013-10-02 20:00:00
6:30 AM,69.8,66.2,88,29.92,6.2,Calm,Calm,-,N/A,,Scattered Clouds,0,2013-10-02 20:30:00
7:00 AM,73,67,77,29.95,,Calm,Calm,,,,,,2013-10-02 21:00:00
7:00 AM,73.4,68.0,83,29.95,6.2,Calm,Calm,-,N/A,,Scattered Clouds,0,2013-10-02 21:00:00
7:30 AM,77.0,66.2,69,29.95,6.2,WNW,3.5,-,N/A,,Scattered Clouds,300,2013-10-02 21:30:00
8:00 AM,78.8,66.2,65,29.95,6.2,SSE,5.8,-,N/A,,Partly Cloudy,160,2013-10-02 22:00:00
8:30 AM,80.6,66.2,61,29.95,6.2,ENE,4.6,-,N/A,,Partly Cloudy,60,2013-10-02 22:30:00
9:00 AM,80,65,52,29.96,19,NNE,5.8,,,,Partly Cloudy,20,2013-10-02 23:00:00
9:00 AM,80.6,66.2,61,29.95,6.2,NNE,5.8,-,N/A,,Partly Cloudy,20,2013-10-02 23:00:00
9:30 AM,80.6,66.2,61,29.95,6.2,East,4.6,-,N/A,,Partly Cloudy,90,2013-10-02 23:30:00
10:00 AM,83,64,43,29.97,,NE,9.2,,,,,40,2013-10-03 00:00:00
10:00 AM,84.2,64.4,51,29.95,6.2,NE,9.2,-,N/A,,Partly Cloudy,40,2013-10-03 00:00:00
10:30 AM,82.4,64.4,54,29.95,6.2,NE,8.1,-,N/A,,Partly Cloudy,50,2013-10-03 00:30:00
11:00 AM,82.4,68.0,62,29.95,6.2,NE,10.4,-,N/A,,Partly Cloudy,50,2013-10-03 01:00:00
11:30 AM,82.4,68.0,62,29.92,6.2,ENE,11.5,-,N/A,,Partly Cloudy,60,2013-10-03 01:30:00
12:00 PM,82.4,68.0,62,29.92,6.2,NE,11.5,-,N/A,,Partly Cloudy,50,2013-10-03 02:00:00
12:30 PM,84.2,68.0,58,29.92,6.2,NE,11.5,-,N/A,,Partly Cloudy,40,2013-10-03 02:30:00
1:00 PM,83,68,52,29.91,,NE,10.4,,,,,50,2013-10-03 03:00:00
1:00 PM,84.2,68.0,58,29.89,6.2,NE,10.4,-,N/A,,Partly Cloudy,50,2013-10-03 03:00:00
1:30 PM,84.2,68.0,58,29.89,6.2,NE,11.5,-,N/A,,Scattered Clouds,50,2013-10-03 03:30:00
2:00 PM,82.4,68.0,62,29.86,6.2,NE,11.5,-,N/A,,Scattered Clouds,50,2013-10-03 04:00:00
2:30 PM,80.6,68.0,65,29.86,6.2,NE,8.1,-,N/A,,Mostly Cloudy,50,2013-10-03 04:30:00
3:00 PM,81,67,53,29.86,19,NE,9.2,,,,Partly Cloudy,50,2013-10-03 05:00:00
3:00 PM,80.6,66.2,61,29.86,6.2,NE,9.2,-,N/A,,Scattered Clouds,50,2013-10-03 05:00:00
3:30 PM,78.8,68.0,69,29.86,6.2,NE,6.9,-,N/A,Rain,Light Rain Showers,50,2013-10-03 05:30:00
4:00 PM,78,70,71,29.89,,SSE,2.3,,,,,150,2013-10-03 06:00:00
4:00 PM,78.8,69.8,74,29.89,6.2,SSE,2.3,-,N/A,,Mostly Cloudy,150,2013-10-03 06:00:00
4:30 PM,78.8,68.0,69,29.89,6.2,East,3.5,-,N/A,Rain,Light Rain Showers,90,2013-10-03 06:30:00
5:00 PM,77.0,69.8,78,29.83,6.2,North,8.1,-,N/A,Rain,Light Rain Showers,350,2013-10-03 07:00:00
5:30 PM,77.0,69.8,78,29.83,6.2,West,5.8,-,N/A,,Mostly Cloudy,280,2013-10-03 07:30:00
6:00 PM,76,69,74,29.86,,NW,2.3,,,,,320,2013-10-03 08:00:00
6:00 PM,75.2,69.8,83,29.86,6.2,NW,2.3,-,N/A,,Scattered Clouds,320,2013-10-03 08:00:00
6:30 PM,75.2,69.8,83,29.86,6.2,SSE,3.5,-,N/A,,Scattered Clouds,160,2013-10-03 08:30:00
7:00 PM,76,70,76,29.89,,South,4.6,,,,,180,2013-10-03 09:00:00
7:00 PM,75.2,69.8,83,29.89,6.2,South,4.6,-,N/A,,Scattered Clouds,180,2013-10-03 09:00:00
7:30 PM,75.2,69.8,83,29.86,-9999.0,SSE,6.9,-,N/A,,Clear,160,2013-10-03 09:30:00
8:00 PM,75.2,69.8,83,29.89,6.2,SSE,6.9,-,N/A,,Scattered Clouds,150,2013-10-03 10:00:00
8:30 PM,73.4,69.8,88,29.89,6.2,South,6.9,-,N/A,,Scattered Clouds,170,2013-10-03 10:30:00
9:00 PM,74,69,79,29.91,,SSE,5.8,,,,,160,2013-10-03 11:00:00
9:00 PM,73.4,69.8,88,29.89,6.2,SSE,5.8,-,N/A,,Mostly Cloudy,160,2013-10-03 11:00:00
9:30 PM,73.4,69.8,88,29.92,6.2,Calm,Calm,-,N/A,,Mostly Cloudy,0,2013-10-03 11:30:00
10:00 PM,72,69,88,29.92,,WNW,3.5,,,,,290,2013-10-03 12:00:00
10:00 PM,71.6,69.8,94,29.92,6.2,WNW,3.5,-,N/A,,Scattered Clouds,290,2013-10-03 12:00:00
10:30 PM,71.6,69.8,94,29.92,6.2,Calm,Calm,-,N/A,,Scattered Clouds,0,2013-10-03 12:30:00
11:00 PM,73.4,68.0,83,29.92,6.2,SSE,5.8,-,N/A,,Scattered Clouds,150,2013-10-03 13:00:00
11:30 PM,73.4,69.8,88,29.89,6.2,West,3.5,-,N/A,,Scattered Clouds,280,2013-10-03 13:30:00